Time;durP1;ratioP1;P1;durP2;ratioP2;P2;SDS_P1;SDS_P2;PMS_P1;PMS_P2;Temp;Humidity;BMP_temperature;BMP_pressure;BME280_temperature;BME280_humidity;BME280_pressure;Samples;Min_cycle;Max_cycle;Signal;HPM_P1;HPM_P2
2023/07/28 00:01:50;;;;;;;3.30;2.50;;;17.80;99.90;;;;;;2586529;54;20030;31
2023/07/28 00:04:22;;;;;;;6.90;2.30;;;17.70;99.90;;;;;;2586467;54;20803;31
2023/07/28 00:06:54;;;;;;;4.50;2.40;;;17.80;99.90;;;;;;2586490;54;20148;31
2023/07/28 00:09:28;;;;;;;3.25;2.10;;;17.70;99.90;;;;;;2605147;46;20030;31
2023/07/28 00:12:00;;;;;;;2.40;1.90;;;17.70;99.90;;;;;;2586252;54;20093;31
2023/07/28 00:14:33;;;;;;;3.67;2.25;;;17.70;99.90;;;;;;2586469;54;20028;31
2023/07/28 00:17:05;;;;;;;2.70;2.00;;;17.70;99.90;;;;;;2586331;54;19934;31
2023/07/28 00:19:38;;;;;;;4.55;2.08;;;17.70;99.90;;;;;;2746993;31;20022;31
2023/07/28 00:22:10;;;;;;;4.17;2.10;;;17.70;99.90;;;;;;2586431;54;20030;31
2023/07/28 00:24:44;;;;;;;1.88;1.67;;;17.60;99.90;;;;;;2586541;54;20901;31
2023/07/28 00:27:19;;;;;;;2.10;1.53;;;17.60;99.90;;;;;;2605031;46;20836;31
2023/07/28 00:29:52;;;;;;;4.70;2.08;;;17.60;99.90;;;;;;2604441;46;20930;31
2023/07/28 00:32:25;;;;;;;4.80;1.80;;;17.60;99.90;;;;;;2586543;54;20038;31
2023/07/28 00:34:57;;;;;;;3.53;1.85;;;17.60;99.90;;;;;;2586400;54;20116;31
2023/07/28 00:37:29;;;;;;;3.60;1.50;;;17.60;99.90;;;;;;2605054;46;20030;31
2023/07/28 00:40:03;;;;;;;1.70;1.45;;;17.50;99.90;;;;;;2604922;46;20053;31
2023/07/28 00:42:35;;;;;;;4.50;2.20;;;17.50;99.90;;;;;;2586173;54;20037;31
2023/07/28 00:45:10;;;;;;;1.95;1.50;;;17.60;99.90;;;;;;2586260;54;20967;31
2023/07/28 00:47:42;;;;;;;3.97;1.77;;;17.50;99.90;;;;;;2586275;54;20904;31
2023/07/28 00:50:13;;;;;;;4.25;1.77;;;17.50;99.90;;;;;;2586120;54;20031;31
2023/07/28 00:52:47;;;;;;;2.63;1.60;;;17.50;99.90;;;;;;2586328;54;20988;31
2023/07/28 00:55:22;;;;;;;2.85;1.92;;;17.50;99.90;;;;;;2586441;54;20734;31
2023/07/28 00:57:54;;;;;;;11.95;2.50;;;17.50;99.90;;;;;;2586397;54;20022;31
2023/07/28 01:00:27;;;;;;;2.60;1.67;;;17.50;99.90;;;;;;2604573;46;20900;31
2023/07/28 01:02:59;;;;;;;3.90;2.00;;;17.50;99.90;;;;;;2586173;54;20022;31
2023/07/28 01:05:35;;;;;;;2.40;1.90;;;17.50;99.90;;;;;;2586339;54;20054;31
2023/07/28 01:08:10;;;;;;;4.70;2.22;;;17.50;99.90;;;;;;2586155;54;20046;31
2023/07/28 01:10:43;;;;;;;3.42;2.50;;;17.50;99.90;;;;;;2586223;54;20089;31
2023/07/28 01:13:17;;;;;;;2.92;2.28;;;17.50;99.90;;;;;;2586231;54;20820;31
2023/07/28 01:15:52;;;;;;;5.13;2.80;;;17.50;99.90;;;;;;2586148;54;20944;31
2023/07/28 01:18:23;;;;;;;5.50;2.60;;;17.50;99.90;;;;;;2586347;54;20085;31
2023/07/28 01:20:56;;;;;;;3.55;2.40;;;17.50;99.90;;;;;;2604640;46;20144;31
2023/07/28 01:23:46;;;;;;;5.33;3.07;;;17.50;99.90;;;;;;2586275;54;20841;31
2023/07/28 01:26:29;;;;;;;4.00;3.30;;;17.50;99.90;;;;;;2586148;54;20029;31
2023/07/28 01:29:04;;;;;;;5.78;3.65;;;17.50;99.90;;;;;;2586198;54;20050;31
2023/07/28 01:31:36;;;;;;;5.10;3.55;;;17.60;99.90;;;;;;2586124;54;20859;31
2023/07/28 01:34:09;;;;;;;5.45;3.92;;;17.50;99.90;;;;;;2586098;54;20033;31
2023/07/28 01:36:42;;;;;;;5.13;3.65;;;17.50;99.90;;;;;;2586173;54;20846;31
2023/07/28 01:39:14;;;;;;;5.30;4.07;;;17.50;99.90;;;;;;2586339;54;20820;31
2023/07/28 01:41:49;;;;;;;7.90;3.78;;;17.50;99.90;;;;;;2604452;46;20910;31
2023/07/28 01:44:21;;;;;;;4.70;4.10;;;17.50;99.90;;;;;;2604956;46;20033;31
2023/07/28 01:46:53;;;;;;;5.90;5.40;;;17.60;99.90;;;;;;2586065;54;20046;31
2023/07/28 01:49:25;;;;;;;6.88;4.90;;;17.50;99.90;;;;;;2586151;54;20057;31
2023/07/28 01:51:57;;;;;;;8.35;5.03;;;17.50;99.90;;;;;;2586088;54;20042;31
2023/07/28 01:54:29;;;;;;;6.57;5.43;;;17.60;99.90;;;;;;2586015;54;20050;31
2023/07/28 01:57:04;;;;;;;7.43;5.22;;;17.60;99.90;;;;;;2586017;54;21082;31
2023/07/28 01:59:35;;;;;;;7.13;5.63;;;17.60;99.90;;;;;;2586183;54;20769;31
2023/07/28 02:02:07;;;;;;;8.48;6.65;;;17.60;99.90;;;;;;2585970;54;20034;31
2023/07/28 02:04:39;;;;;;;6.22;5.70;;;17.60;99.90;;;;;;2586015;54;20093;31
2023/07/28 02:07:11;;;;;;;6.70;5.97;;;17.60;99.90;;;;;;2600341;46;20870;31
2023/07/28 02:09:43;;;;;;;7.05;6.20;;;17.60;99.90;;;;;;2586124;54;20949;31
2023/07/28 02:12:18;;;;;;;8.13;5.20;;;17.60;99.90;;;;;;2585940;54;20941;31
2023/07/28 02:14:54;;;;;;;7.07;6.00;;;17.70;99.90;;;;;;2586297;54;20920;31
2023/07/28 02:17:28;;;;;;;6.00;5.40;;;17.70;99.90;;;;;;2584076;54;20102;31
2023/07/28 02:20:01;;;;;;;5.88;5.20;;;17.70;99.90;;;;;;2585775;54;20026;31
2023/07/28 02:22:34;;;;;;;7.15;5.95;;;17.80;99.90;;;;;;2585988;54;20035;31
2023/07/28 02:25:06;;;;;;;7.60;6.18;;;17.80;99.90;;;;;;2586256;54;20888;31
2023/07/28 02:27:43;;;;;;;6.70;6.05;;;17.80;99.90;;;;;;2585868;54;20141;31
2023/07/28 02:30:18;;;;;;;7.18;6.50;;;17.70;99.90;;;;;;2586134;54;20049;31
2023/07/28 02:32:50;;;;;;;6.32;5.65;;;17.70;99.90;;;;;;2585856;54;20971;31
2023/07/28 02:35:23;;;;;;;7.55;6.53;;;17.70;99.90;;;;;;2586051;54;20858;31
2023/07/28 02:37:55;;;;;;;7.55;6.85;;;17.60;99.90;;;;;;2586011;54;20026;31
2023/07/28 02:40:28;;;;;;;6.97;6.37;;;17.60;99.90;;;;;;2586034;54;20117;31
2023/07/28 02:43:02;;;;;;;6.20;5.15;;;17.60;99.90;;;;;;2699846;39;21631;31
2023/07/28 02:45:35;;;;;;;7.38;6.68;;;17.60;99.90;;;;;;2604287;46;20906;31
2023/07/28 02:48:08;;;;;;;7.40;5.90;;;17.50;99.90;;;;;;2585089;54;20076;31
2023/07/28 02:50:41;;;;;;;6.80;6.20;;;17.50;99.90;;;;;;2585274;54;20912;31
2023/07/28 02:53:13;;;;;;;6.82;6.22;;;17.50;99.90;;;;;;2585883;54;19935;31
2023/07/28 02:55:45;;;;;;;6.00;5.50;;;17.40;99.90;;;;;;2585854;54;20026;31
2023/07/28 02:58:20;;;;;;;7.33;4.80;;;17.40;99.90;;;;;;2603939;46;20053;31
2023/07/28 03:00:52;;;;;;;5.63;5.13;;;17.40;99.90;;;;;;2585853;54;20053;31
2023/07/28 03:03:34;;;;;;;6.28;5.55;;;17.40;99.90;;;;;;2585596;54;20081;31
2023/07/28 03:06:06;;;;;;;6.28;5.75;;;17.50;99.90;;;;;;2585921;54;20029;31
2023/07/28 03:08:39;;;;;;;6.40;5.77;;;17.40;99.90;;;;;;2585944;54;19934;31
2023/07/28 03:11:49;;;;;;;6.30;5.75;;;17.40;99.90;;;;;;2585612;54;20872;31
2023/07/28 03:14:23;;;;;;;7.65;4.90;;;17.40;99.90;;;;;;2585372;54;20026;31
2023/07/28 03:16:58;;;;;;;5.72;5.22;;;17.50;99.90;;;;;;2585931;54;20029;31
2023/07/28 03:19:30;;;;;;;6.75;5.55;;;17.50;99.90;;;;;;2585726;54;20936;31
2023/07/28 03:22:02;;;;;;;6.70;6.10;;;17.50;99.90;;;;;;2585836;54;20026;31
2023/07/28 03:24:34;;;;;;;6.70;5.55;;;17.50;99.90;;;;;;2585760;54;20855;31
2023/07/28 03:27:08;;;;;;;5.60;4.95;;;17.50;99.90;;;;;;2585942;54;20033;31
2023/07/28 03:29:42;;;;;;;7.38;6.03;;;17.50;99.90;;;;;;2585831;54;20771;31
2023/07/28 03:32:16;;;;;;;7.82;5.35;;;17.50;99.90;;;;;;2604018;47;20556;31
2023/07/28 03:34:49;;;;;;;6.50;4.88;;;17.50;99.90;;;;;;2585766;54;20026;31
2023/07/28 03:37:25;;;;;;;5.25;4.10;;;17.50;99.90;;;;;;2585701;54;21555;31
2023/07/28 03:39:58;;;;;;;4.85;4.20;;;17.40;99.90;;;;;;2585526;54;20097;31
2023/07/28 03:42:41;;;;;;;6.10;4.55;;;17.40;99.90;;;;;;2585558;54;20033;31
2023/07/28 03:45:17;;;;;;;4.80;4.38;;;17.50;99.90;;;;;;2683265;39;21463;31
2023/07/28 03:47:50;;;;;;;5.00;4.45;;;17.50;99.90;;;;;;2585553;54;20042;31
2023/07/28 03:50:24;;;;;;;4.57;4.18;;;17.40;99.90;;;;;;2585424;54;20050;31
2023/07/28 03:52:56;;;;;;;5.03;3.63;;;17.40;99.90;;;;;;2604064;47;20038;31
2023/07/28 03:55:29;;;;;;;9.55;4.13;;;17.50;99.90;;;;;;2585721;54;20034;31
2023/07/28 03:58:04;;;;;;;4.53;4.13;;;17.50;99.90;;;;;;2585651;54;20690;31
2023/07/28 04:00:42;;;;;;;3.90;3.60;;;17.50;99.90;;;;;;2683155;39;21444;31
2023/07/28 04:03:14;;;;;;;7.63;3.28;;;17.50;99.90;;;;;;2585502;54;21105;31
2023/07/28 04:05:47;;;;;;;5.50;2.90;;;17.40;99.90;;;;;;2585604;54;20922;31
2023/07/28 04:08:19;;;;;;;6.40;3.00;;;17.50;99.90;;;;;;2585702;54;20087;31
2023/07/28 04:10:51;;;;;;;3.33;3.05;;;17.50;99.90;;;;;;2585641;54;20054;31
2023/07/28 04:13:24;;;;;;;4.30;3.30;;;17.50;99.90;;;;;;2604405;47;20026;31
2023/07/28 04:15:59;;;;;;;3.78;3.35;;;17.50;99.90;;;;;;2604328;47;20059;31
2023/07/28 04:18:35;;;;;;;5.30;3.50;;;17.50;99.90;;;;;;2586546;54;20766;31
2023/07/28 04:21:09;;;;;;;3.70;2.80;;;17.60;99.90;;;;;;2586014;54;20120;31
2023/07/28 04:23:41;;;;;;;3.80;2.90;;;17.60;99.90;;;;;;2586387;54;20033;31
2023/07/28 04:26:15;;;;;;;4.30;2.60;;;17.60;99.90;;;;;;2586211;54;20867;31
2023/07/28 04:28:50;;;;;;;3.40;2.57;;;17.70;99.90;;;;;;2586052;54;20215;31
2023/07/28 04:31:30;;;;;;;2.27;2.00;;;17.70;99.90;;;;;;2586410;54;20254;31
2023/07/28 04:34:14;;;;;;;3.70;1.70;;;17.70;99.90;;;;;;2586216;54;20723;31
2023/07/28 04:37:07;;;;;;;2.25;1.45;;;17.70;99.90;;;;;;2586395;54;20755;31
2023/07/28 04:39:58;;;;;;;5.95;2.10;;;17.70;99.90;;;;;;2586397;54;20027;31
2023/07/28 04:42:37;;;;;;;2.33;1.65;;;17.70;99.90;;;;;;2586260;54;20026;31
2023/07/28 04:45:15;;;;;;;2.78;1.90;;;17.70;99.90;;;;;;2586164;54;20946;31
2023/07/28 04:47:53;;;;;;;2.67;1.50;;;17.70;99.90;;;;;;2604613;46;20031;31
2023/07/28 04:50:25;;;;;;;1.97;1.63;;;17.80;99.90;;;;;;2586207;54;20113;31
2023/07/28 04:53:30;;;;;;;4.15;1.80;;;17.80;99.90;;;;;;2586418;54;20978;31
2023/07/28 04:56:15;;;;;;;2.83;1.70;;;17.80;99.90;;;;;;2586042;54;20030;31
2023/07/28 04:58:50;;;;;;;2.60;1.52;;;17.80;99.90;;;;;;2586217;54;20031;31
2023/07/28 05:01:25;;;;;;;1.88;1.60;;;17.90;99.90;;;;;;2604518;46;20027;31
2023/07/28 05:04:01;;;;;;;4.10;1.55;;;17.90;99.90;;;;;;2585917;54;20033;31
2023/07/28 05:06:42;;;;;;;1.80;1.33;;;18.00;99.90;;;;;;2604809;46;20034;31
2023/07/28 05:09:15;;;;;;;2.03;1.10;;;18.00;99.90;;;;;;2586188;54;20052;31
2023/07/28 05:11:48;;;;;;;2.80;1.00;;;18.00;99.90;;;;;;2586311;54;20863;31
2023/07/28 05:14:23;;;;;;;2.17;0.98;;;18.00;99.90;;;;;;2586365;54;20023;31
2023/07/28 05:16:56;;;;;;;5.03;1.23;;;17.90;99.90;;;;;;2586177;54;20848;31
2023/07/28 05:19:43;;;;;;;6.55;1.60;;;18.00;99.90;;;;;;2623136;46;20031;31
2023/07/28 05:22:35;;;;;;;4.33;1.40;;;17.90;99.90;;;;;;2586073;54;20743;31
2023/07/28 05:25:09;;;;;;;2.93;1.60;;;17.90;99.90;;;;;;2585812;54;20557;31
2023/07/28 05:27:48;;;;;;;3.80;1.15;;;17.90;99.90;;;;;;2604273;46;20027;31
2023/07/28 05:30:21;;;;;;;3.78;1.20;;;17.90;99.90;;;;;;2604790;46;20053;31
2023/07/28 05:32:59;;;;;;;2.13;1.27;;;17.90;99.90;;;;;;2586181;54;20158;31
2023/07/28 05:36:03;;;;;;;3.10;1.40;;;17.90;99.90;;;;;;2586231;54;20060;31
2023/07/28 05:38:39;;;;;;;2.55;1.40;;;17.90;99.90;;;;;;2586151;54;21061;31
2023/07/28 05:41:13;;;;;;;3.03;1.43;;;17.90;99.90;;;;;;2586046;54;20835;31
2023/07/28 05:43:52;;;;;;;4.07;1.23;;;17.90;99.90;;;;;;2585890;54;20030;31
2023/07/28 05:46:25;;;;;;;2.95;1.10;;;17.90;99.90;;;;;;2586060;54;20855;31
2023/07/28 05:49:00;;;;;;;4.30;1.65;;;17.90;99.90;;;;;;2604539;46;20030;31
2023/07/28 05:51:37;;;;;;;2.47;1.30;;;18.00;99.90;;;;;;2604242;46;20024;31
2023/07/28 05:54:10;;;;;;;3.55;1.30;;;18.00;99.90;;;;;;2586141;54;20864;31
2023/07/28 05:56:43;;;;;;;2.38;1.15;;;18.10;99.90;;;;;;2586021;54;20058;31
2023/07/28 05:59:17;;;;;;;3.83;1.50;;;18.00;99.90;;;;;;2586038;54;20909;31
2023/07/28 06:01:53;;;;;;;3.65;1.33;;;18.10;99.90;;;;;;2586296;54;20083;31
2023/07/28 06:04:40;;;;;;;2.90;1.52;;;18.20;99.90;;;;;;2586048;54;20022;31
2023/07/28 06:07:18;;;;;;;3.03;1.38;;;18.20;99.90;;;;;;2585866;54;20038;31
2023/07/28 06:09:51;;;;;;;2.40;1.40;;;18.20;99.90;;;;;;2585964;54;20045;31
2023/07/28 06:12:25;;;;;;;2.20;1.07;;;18.30;99.90;;;;;;2586134;54;20771;31
2023/07/28 06:15:01;;;;;;;1.65;1.10;;;18.30;99.90;;;;;;2585438;54;20869;31
2023/07/28 06:17:34;;;;;;;13.15;2.55;;;18.40;99.90;;;;;;2585906;54;20026;31
2023/07/28 06:20:11;;;;;;;2.47;1.48;;;18.40;99.90;;;;;;2586120;54;20029;31
2023/07/28 06:22:47;;;;;;;;;;;18.50;99.90;;;;;;2585835;54;20149;31
2023/07/28 06:25:20;;;;;;;1.83;1.27;;;18.60;99.90;;;;;;2585998;54;19935;31
2023/07/28 06:27:55;;;;;;;1.88;1.23;;;18.70;99.90;;;;;;2604365;46;20856;31
2023/07/28 06:30:36;;;;;;;2.80;1.10;;;18.80;99.90;;;;;;2585978;54;20082;31
2023/07/28 06:33:09;;;;;;;4.22;1.13;;;18.80;99.90;;;;;;2585755;54;20398;31
2023/07/28 06:35:42;;;;;;;3.97;1.00;;;18.80;99.90;;;;;;2586085;54;20034;31
2023/07/28 06:38:22;;;;;;;3.30;1.00;;;18.80;99.90;;;;;;2585704;54;21043;31
2023/07/28 06:40:58;;;;;;;2.47;1.27;;;18.80;99.90;;;;;;2585540;54;20875;31
2023/07/28 06:43:33;;;;;;;1.25;0.85;;;18.80;99.90;;;;;;2604022;46;20029;31
2023/07/28 06:46:06;;;;;;;1.60;0.70;;;18.80;99.90;;;;;;2585963;54;20030;31
2023/07/28 06:48:41;;;;;;;3.53;1.00;;;18.80;99.90;;;;;;2586008;54;20948;31
2023/07/28 06:51:16;;;;;;;4.85;0.85;;;18.90;99.90;;;;;;2585797;54;20034;31
2023/07/28 06:53:52;;;;;;;1.65;0.63;;;18.90;99.90;;;;;;2585732;54;20827;31
2023/07/28 06:56:25;;;;;;;1.45;0.88;;;18.90;99.90;;;;;;2586019;54;20027;31
2023/07/28 06:58:58;;;;;;;4.00;0.55;;;18.90;99.90;;;;;;2585736;54;20897;31
2023/07/28 07:01:48;;;;;;;1.90;0.65;;;19.00;99.90;;;;;;2585898;54;20977;31
2023/07/28 07:04:22;;;;;;;2.17;0.70;;;19.00;99.90;;;;;;2585697;54;20844;31
2023/07/28 07:06:56;;;;;;;3.40;0.80;;;19.10;99.90;;;;;;2585874;54;20901;31
2023/07/28 07:09:34;;;;;;;4.93;1.08;;;19.10;99.90;;;;;;2585885;54;20026;31
2023/07/28 07:12:08;;;;;;;3.87;0.70;;;19.20;99.90;;;;;;2585818;54;20744;31
2023/07/28 07:14:41;;;;;;;0.83;0.60;;;19.30;99.90;;;;;;2586072;54;20768;31
2023/07/28 07:17:15;;;;;;;0.88;0.50;;;19.30;99.90;;;;;;2585867;54;20141;31
2023/07/28 07:19:48;;;;;;;1.02;0.57;;;19.40;99.90;;;;;;2585940;54;20033;31
2023/07/28 07:22:21;;;;;;;1.10;0.40;;;19.60;99.90;;;;;;2585781;54;20174;31
2023/07/28 07:24:58;;;;;;;1.17;0.30;;;19.60;99.90;;;;;;2604161;47;20809;31
2023/07/28 07:27:32;;;;;;;0.75;0.30;;;19.70;99.90;;;;;;2604055;47;20053;31
2023/07/28 07:30:04;;;;;;;0.50;0.30;;;19.70;99.90;;;;;;2585719;54;21001;31
2023/07/28 07:32:39;;;;;;;0.80;0.40;;;19.70;99.90;;;;;;2585993;54;20029;31
2023/07/28 07:35:13;;;;;;;1.50;0.40;;;19.70;99.90;;;;;;2581436;54;20064;31
2023/07/28 07:37:50;;;;;;;1.90;0.30;;;19.70;99.90;;;;;;2600954;47;20042;31
2023/07/28 07:40:27;;;;;;;1.70;0.32;;;19.70;99.90;;;;;;2582691;54;20242;31
2023/07/28 07:43:03;;;;;;;3.10;0.60;;;19.70;99.90;;;;;;2582224;54;20861;31
2023/07/28 07:45:36;;;;;;;2.10;0.30;;;19.70;99.90;;;;;;2582364;54;20967;31
2023/07/28 07:48:09;;;;;;;1.58;0.47;;;19.80;99.90;;;;;;2584106;39;20354;31
2023/07/28 07:50:45;;;;;;;3.13;0.60;;;19.80;99.90;;;;;;2633511;39;20246;31
2023/07/28 07:53:19;;;;;;;;;;;19.90;99.90;;;;;;2584954;54;20031;31
2023/07/28 07:56:01;;;;;;;3.28;0.60;;;19.90;99.90;;;;;;2586059;54;20012;31
2023/07/28 07:58:37;;;;;;;3.05;0.50;;;19.90;99.90;;;;;;2604627;46;20684;31
2023/07/28 08:01:11;;;;;;;0.50;0.30;;;19.90;99.90;;;;;;2586296;54;20054;31
2023/07/28 08:03:50;;;;;;;1.40;0.30;;;19.90;99.90;;;;;;2586441;54;20962;31
2023/07/28 08:06:28;;;;;;;1.90;0.40;;;19.90;99.90;;;;;;2684361;39;20644;31
2023/07/28 08:09:03;;;;;;;1.37;0.50;;;20.00;99.90;;;;;;2586486;54;20037;31
2023/07/28 08:11:41;;;;;;;1.10;0.40;;;20.00;99.90;;;;;;2584575;54;20070;31
2023/07/28 08:14:14;;;;;;;1.25;0.43;;;20.00;99.90;;;;;;2755564;31;21179;31
2023/07/28 08:16:48;;;;;;;2.17;0.50;;;20.00;99.90;;;;;;2605199;46;20927;31
2023/07/28 08:19:23;;;;;;;1.95;0.60;;;20.10;99.90;;;;;;2586421;54;20022;31
2023/07/28 08:21:56;;;;;;;1.93;0.50;;;20.10;99.90;;;;;;2586321;54;20033;31
2023/07/28 08:24:33;;;;;;;2.63;0.45;;;20.10;99.90;;;;;;2684166;39;21736;31
2023/07/28 08:27:12;;;;;;;1.42;0.90;;;20.10;99.90;;;;;;2586588;54;20022;31
2023/07/28 08:29:45;;;;;;;2.75;0.40;;;20.20;99.90;;;;;;2586560;54;20027;31
2023/07/28 08:32:18;;;;;;;1.17;0.52;;;20.10;99.90;;;;;;2586261;54;21602;31
2023/07/28 08:34:55;;;;;;;0.95;0.50;;;20.10;99.90;;;;;;2586341;54;20027;31
2023/07/28 08:37:30;;;;;;;3.22;0.65;;;20.20;99.90;;;;;;2605133;46;20026;31
2023/07/28 08:40:13;;;;;;;1.08;0.63;;;20.30;99.90;;;;;;2684028;39;20408;31
2023/07/28 08:42:51;;;;;;;5.10;0.60;;;20.30;99.90;;;;;;2586064;54;21172;31
2023/07/28 08:45:28;;;;;;;1.25;0.70;;;20.30;99.90;;;;;;2586472;54;20030;31
2023/07/28 08:48:04;;;;;;;1.35;0.70;;;20.30;99.90;;;;;;2586218;54;20045;31
2023/07/28 08:50:42;;;;;;;2.35;0.90;;;20.30;99.90;;;;;;2702412;39;20449;31
2023/07/28 08:53:20;;;;;;;3.05;0.90;;;20.40;99.90;;;;;;2586202;54;21518;31
2023/07/28 08:55:53;;;;;;;1.10;0.60;;;20.40;99.90;;;;;;2586189;54;20083;31
2023/07/28 08:58:29;;;;;;;4.00;0.80;;;20.60;99.90;;;;;;2586416;54;20027;31
2023/07/28 09:01:06;;;;;;;0.90;0.68;;;21.00;99.90;;;;;;2586470;54;20736;31
2023/07/28 09:03:40;;;;;;;2.33;0.70;;;21.50;99.90;;;;;;2604565;47;20030;31
2023/07/28 09:06:15;;;;;;;1.85;1.00;;;21.90;99.90;;;;;;2586360;54;20136;31
2023/07/28 09:08:52;;;;;;;6.30;1.20;;;22.20;99.90;;;;;;2586156;54;20026;31
2023/07/28 09:11:30;;;;;;;1.52;0.70;;;22.30;99.90;;;;;;2604729;46;20120;31
2023/07/28 09:14:08;;;;;;;3.28;0.90;;;22.40;99.90;;;;;;2586475;54;20022;31
2023/07/28 09:16:41;;;;;;;2.85;0.70;;;22.60;99.90;;;;;;2605078;46;20851;31
2023/07/28 09:19:16;;;;;;;2.70;0.77;;;22.60;99.90;;;;;;2585822;54;20026;31
2023/07/28 09:21:50;;;;;;;1.90;0.80;;;22.60;99.90;;;;;;2605012;46;20760;31
2023/07/28 09:24:23;;;;;;;3.05;0.85;;;22.50;99.90;;;;;;2586239;54;20077;31
2023/07/28 09:26:56;;;;;;;1.40;0.80;;;22.40;99.90;;;;;;2586365;54;21552;31
2023/07/28 09:29:37;;;;;;;1.77;0.70;;;22.40;99.90;;;;;;2586151;54;20122;31
2023/07/28 09:32:15;;;;;;;2.30;0.80;;;22.70;99.90;;;;;;2586526;54;21575;31
2023/07/28 09:34:49;;;;;;;1.13;0.50;;;23.20;99.90;;;;;;2586180;54;21585;31
2023/07/28 09:37:22;;;;;;;1.10;0.70;;;23.50;99.90;;;;;;2586133;54;20023;31
2023/07/28 09:39:56;;;;;;;1.10;0.80;;;23.60;99.90;;;;;;2586011;54;20033;31
2023/07/28 09:42:29;;;;;;;0.93;0.77;;;23.70;99.90;;;;;;2586130;54;20038;31
2023/07/28 09:45:14;;;;;;;0.85;0.80;;;23.80;99.90;;;;;;2586413;54;20916;31
2023/07/28 09:48:11;;;;;;;3.50;0.90;;;23.70;99.90;;;;;;2604655;46;20973;31
2023/07/28 09:50:51;;;;;;;3.40;0.90;;;23.80;99.90;;;;;;2586564;54;20867;31
2023/07/28 09:53:27;;;;;;;1.00;0.90;;;23.90;99.90;;;;;;2604522;46;20043;31
2023/07/28 09:56:02;;;;;;;4.10;0.80;;;23.80;99.90;;;;;;2604905;46;20023;31
2023/07/28 09:58:34;;;;;;;1.30;1.20;;;23.70;99.90;;;;;;2586101;54;20027;31
2023/07/28 10:01:09;;;;;;;2.38;1.10;;;23.50;99.90;;;;;;2586222;54;20023;31
2023/07/28 10:03:43;;;;;;;0.85;0.80;;;23.30;99.90;;;;;;2585377;54;20066;31
2023/07/28 10:06:18;;;;;;;3.50;1.00;;;23.50;99.90;;;;;;2586325;54;20093;31
2023/07/28 10:08:54;;;;;;;2.05;0.70;;;23.80;99.90;;;;;;2586209;54;20061;31
2023/07/28 10:11:34;;;;;;;1.90;0.80;;;24.30;99.90;;;;;;2586177;54;20030;31
2023/07/28 10:14:13;;;;;;;1.60;0.80;;;24.70;99.90;;;;;;2585948;54;20361;31
2023/07/28 10:16:51;;;;;;;1.10;0.60;;;24.80;99.90;;;;;;2586007;54;20026;31
2023/07/28 10:19:28;;;;;;;1.35;0.80;;;24.90;99.90;;;;;;2604967;46;20757;31
2023/07/28 10:22:15;;;;;;;3.60;0.70;;;25.10;99.90;;;;;;2586143;54;20022;31
2023/07/28 10:24:58;;;;;;;1.35;0.70;;;25.40;99.90;;;;;;2586217;54;20470;31
2023/07/28 10:27:34;;;;;;;1.20;0.60;;;25.70;99.90;;;;;;2585891;54;20022;31
2023/07/28 10:30:15;;;;;;;3.30;0.60;;;25.80;99.90;;;;;;2586001;54;20316;31
2023/07/28 10:32:54;;;;;;;0.77;0.45;;;26.00;99.90;;;;;;2585989;54;20085;31
2023/07/28 10:35:31;;;;;;;1.25;0.60;;;26.20;99.90;;;;;;2585997;54;20860;31
2023/07/28 10:38:31;;;;;;;4.35;0.90;;;26.40;99.90;;;;;;2586230;54;21230;31
2023/07/28 10:41:16;;;;;;;2.78;0.65;;;26.30;99.90;;;;;;2585696;54;22373;31
2023/07/28 10:43:49;;;;;;;0.80;0.70;;;26.30;99.90;;;;;;2585937;54;20038;31
2023/07/28 10:46:24;;;;;;;1.30;0.60;;;26.30;99.90;;;;;;2585822;54;20863;31
2023/07/28 10:49:08;;;;;;;2.30;0.80;;;26.20;99.90;;;;;;2604278;46;20930;31
2023/07/28 10:51:45;;;;;;;0.85;0.70;;;26.00;99.90;;;;;;2585904;54;20034;31
2023/07/28 10:54:20;;;;;;;2.00;0.70;;;26.00;99.90;;;;;;2586029;54;20918;31
2023/07/28 10:56:54;;;;;;;2.40;0.70;;;25.90;99.90;;;;;;2585680;54;21162;31
2023/07/28 10:59:30;;;;;;;1.70;0.90;;;25.90;99.90;;;;;;2585766;54;20273;31
2023/07/28 11:02:01;;;;;;;;;;;26.00;99.90;;;;;;2585985;54;20752;31
2023/07/28 11:04:42;;;;;;;0.77;0.60;;;26.00;99.90;;;;;;2585396;54;20671;31
2023/07/28 11:07:19;;;;;;;0.80;0.77;;;25.90;99.90;;;;;;2604161;46;20036;31
2023/07/28 11:09:54;;;;;;;0.90;0.60;;;25.70;99.90;;;;;;2585779;54;20033;31
2023/07/28 11:12:29;;;;;;;2.47;0.80;;;25.60;99.90;;;;;;2585757;54;20031;31
2023/07/28 11:15:03;;;;;;;1.00;0.63;;;25.60;99.90;;;;;;2604129;46;20042;31
2023/07/28 11:17:39;;;;;;;3.80;1.20;;;25.40;99.90;;;;;;2585710;54;20053;31
2023/07/28 11:20:24;;;;;;;1.05;0.77;;;25.50;99.90;;;;;;2585931;54;20806;31
2023/07/28 11:22:58;;;;;;;1.10;0.80;;;25.60;99.90;;;;;;2585912;54;21638;31
2023/07/28 11:25:32;;;;;;;3.05;0.80;;;25.80;99.90;;;;;;2585278;54;20036;31
2023/07/28 11:28:10;;;;;;;2.50;0.93;;;26.00;99.90;;;;;;2683579;39;21722;31
2023/07/28 11:30:47;;;;;;;2.38;0.73;;;26.10;99.90;;;;;;2585683;54;21670;31
2023/07/28 11:33:22;;;;;;;2.20;0.85;;;26.10;99.90;;;;;;2586248;54;20026;31
2023/07/28 11:36:00;;;;;;;1.40;0.70;;;26.00;99.90;;;;;;2604847;46;20901;31
2023/07/28 11:38:35;;;;;;;1.88;0.82;;;26.00;99.90;;;;;;2604742;46;20247;31
2023/07/28 11:41:12;;;;;;;2.20;0.70;;;25.80;99.90;;;;;;2586602;54;20500;31
2023/07/28 11:43:48;;;;;;;1.85;0.85;;;25.70;99.90;;;;;;2586797;54;20883;31
2023/07/28 11:46:36;;;;;;;1.45;0.70;;;25.70;99.90;;;;;;2604843;46;20125;31
2023/07/28 11:51:48;;;;;;;0.98;0.70;;;25.50;99.90;;;;;;2586529;54;20772;31
2023/07/28 11:54:38;;;;;;;2.10;0.70;;;25.50;99.90;;;;;;2586502;54;20856;31
2023/07/28 11:57:19;;;;;;;0.73;0.40;;;25.70;99.90;;;;;;2585847;54;20862;31
2023/07/28 11:59:51;;;;;;;3.20;0.80;;;25.70;99.90;;;;;;2586398;54;20050;31
2023/07/28 12:02:29;;;;;;;0.68;0.50;;;25.70;99.90;;;;;;2605262;46;20752;31
2023/07/28 12:05:05;;;;;;;1.85;0.60;;;25.80;99.90;;;;;;2586704;54;20748;31
2023/07/28 12:07:43;;;;;;;1.85;0.50;;;25.90;99.90;;;;;;2586136;54;22350;31
2023/07/28 12:10:17;;;;;;;0.82;0.50;;;26.00;99.90;;;;;;2586206;54;20049;31
2023/07/28 12:13:12;;;;;;;0.77;0.40;;;26.20;99.90;;;;;;2586327;54;20027;31
2023/07/28 12:15:53;;;;;;;1.75;0.50;;;26.20;99.90;;;;;;2585518;54;20023;31
2023/07/28 12:18:34;;;;;;;0.90;0.50;;;26.30;99.90;;;;;;2590411;46;20054;31
2023/07/28 12:21:31;;;;;;;1.55;0.60;;;26.50;99.90;;;;;;2586079;54;20034;31
2023/07/28 12:24:11;;;;;;;3.40;0.60;;;26.70;99.90;;;;;;2595515;46;20839;31
2023/07/28 12:26:44;;;;;;;1.60;1.10;;;26.70;99.90;;;;;;2586177;54;20022;31
2023/07/28 12:29:22;;;;;;;3.80;0.50;;;26.70;99.90;;;;;;2585776;54;20896;31
2023/07/28 12:32:06;;;;;;;1.55;0.50;;;26.70;99.90;;;;;;2586316;54;20740;31
2023/07/28 12:34:41;;;;;;;1.52;0.60;;;26.60;99.90;;;;;;2604312;46;20865;31
2023/07/28 12:37:26;;;;;;;1.00;0.60;;;26.50;99.90;;;;;;2585908;54;20029;31
2023/07/28 12:40:11;;;;;;;3.53;0.52;;;26.50;99.90;;;;;;2604950;46;20050;31
2023/07/28 12:42:51;;;;;;;2.15;0.55;;;26.60;99.90;;;;;;2586089;54;20022;31
2023/07/28 12:45:27;;;;;;;5.10;0.80;;;26.70;99.90;;;;;;2585934;54;20029;31
2023/07/28 12:48:19;;;;;;;2.60;0.50;;;26.70;99.90;;;;;;2586359;54;20053;31
2023/07/28 12:50:55;;;;;;;3.10;0.55;;;26.80;99.90;;;;;;2586032;54;20083;31
2023/07/28 12:53:32;;;;;;;3.25;0.40;;;27.00;99.90;;;;;;2585136;54;20895;31
2023/07/28 12:56:09;;;;;;;6.47;0.40;;;26.90;99.90;;;;;;2621534;46;20031;31
2023/07/28 12:58:44;;;;;;;2.45;0.35;;;26.80;99.90;;;;;;2585800;54;20874;31
2023/07/28 13:01:21;;;;;;;1.90;0.30;;;26.80;99.90;;;;;;2604640;46;21534;31
2023/07/28 13:03:55;;;;;;;2.75;0.20;;;26.90;99.90;;;;;;2611513;46;20813;31
2023/07/28 13:06:32;;;;;;;3.60;0.30;;;27.00;99.90;;;;;;2586051;54;20819;31
2023/07/28 13:09:08;;;;;;;1.75;0.30;;;27.00;99.90;;;;;;2586068;54;20706;31
2023/07/28 13:11:47;;;;;;;0.70;0.30;;;27.00;99.90;;;;;;2586228;54;20064;31
2023/07/28 13:14:28;;;;;;;0.63;0.40;;;27.00;99.90;;;;;;2586098;54;20030;31
2023/07/28 13:17:02;;;;;;;2.72;0.30;;;27.10;99.90;;;;;;2586021;54;20050;31
2023/07/28 13:19:37;;;;;;;4.90;0.52;;;27.10;99.90;;;;;;2604437;46;20036;31
2023/07/28 13:22:13;;;;;;;2.57;0.50;;;27.20;99.90;;;;;;2586134;54;20046;31
2023/07/28 13:24:46;;;;;;;;;;;27.20;99.90;;;;;;2767790;31;21498;31
2023/07/28 13:27:25;;;;;;;2.27;0.23;;;27.30;99.90;;;;;;2585939;54;19942;31
2023/07/28 13:30:02;;;;;;;2.25;0.40;;;27.30;99.90;;;;;;2585612;54;20022;31
2023/07/28 13:32:38;;;;;;;1.90;0.30;;;27.30;99.90;;;;;;2585137;54;20022;31
2023/07/28 13:35:15;;;;;;;3.42;0.38;;;27.40;99.90;;;;;;2586154;54;21223;31
2023/07/28 13:37:50;;;;;;;0.90;0.30;;;27.40;99.90;;;;;;2585130;54;20760;31
2023/07/28 13:40:24;;;;;;;1.30;0.30;;;27.40;99.90;;;;;;2585772;54;20050;31
2023/07/28 13:43:05;;;;;;;0.40;0.30;;;27.40;99.90;;;;;;2585216;54;20893;31
2023/07/28 13:45:43;;;;;;;1.67;0.40;;;27.50;99.90;;;;;;2585217;54;20089;31
2023/07/28 13:48:17;;;;;;;1.85;0.40;;;27.50;99.90;;;;;;2585905;54;20030;31